sensor_id;sensor_type;location;lat;lon;timestamp;P1;durP1;ratioP1;P2;durP2;ratioP2
11443;SDS011;5778;47.856;12.154;2023-02-28T00:01:32;3.87;;;3.47;;
11443;SDS011;5778;47.856;12.154;2023-02-28T00:04:01;3.90;;;3.17;;
11443;SDS011;5778;47.856;12.154;2023-02-28T00:06:32;3.97;;;3.67;;
11443;SDS011;5778;47.856;12.154;2023-02-28T00:08:59;3.70;;;3.40;;
11443;SDS011;5778;47.856;12.154;2023-02-28T00:11:28;3.57;;;3.20;;
11443;SDS011;5778;47.856;12.154;2023-02-28T00:13:55;4.07;;;3.57;;
11443;SDS011;5778;47.856;12.154;2023-02-28T00:16:22;4.20;;;3.90;;
11443;SDS011;5778;47.856;12.154;2023-02-28T00:18:50;3.93;;;3.50;;
11443;SDS011;5778;47.856;12.154;2023-02-28T00:21:18;4.50;;;3.90;;
11443;SDS011;5778;47.856;12.154;2023-02-28T00:23:50;4.57;;;3.63;;
11443;SDS011;5778;47.856;12.154;2023-02-28T00:26:18;4.30;;;3.33;;
11443;SDS011;5778;47.856;12.154;2023-02-28T00:28:47;4.07;;;3.70;;
11443;SDS011;5778;47.856;12.154;2023-02-28T00:31:14;4.77;;;3.70;;
11443;SDS011;5778;47.856;12.154;2023-02-28T00:33:42;4.93;;;3.60;;
11443;SDS011;5778;47.856;12.154;2023-02-28T00:36:10;4.80;;;3.57;;
11443;SDS011;5778;47.856;12.154;2023-02-28T00:38:39;4.17;;;3.77;;
11443;SDS011;5778;47.856;12.154;2023-02-28T00:41:08;4.23;;;3.83;;
11443;SDS011;5778;47.856;12.154;2023-02-28T00:43:36;3.93;;;3.63;;
11443;SDS011;5778;47.856;12.154;2023-02-28T00:46:06;4.43;;;4.03;;
11443;SDS011;5778;47.856;12.154;2023-02-28T00:48:35;4.40;;;4.00;;
11443;SDS011;5778;47.856;12.154;2023-02-28T00:51:02;4.93;;;3.77;;
11443;SDS011;5778;47.856;12.154;2023-02-28T00:53:30;5.00;;;4.30;;
11443;SDS011;5778;47.856;12.154;2023-02-28T00:56:00;6.77;;;3.80;;
11443;SDS011;5778;47.856;12.154;2023-02-28T00:58:32;4.17;;;3.47;;
11443;SDS011;5778;47.856;12.154;2023-02-28T01:00:59;4.80;;;4.27;;
11443;SDS011;5778;47.856;12.154;2023-02-28T01:03:27;5.23;;;3.77;;
11443;SDS011;5778;47.856;12.154;2023-02-28T01:05:54;4.37;;;3.87;;
11443;SDS011;5778;47.856;12.154;2023-02-28T01:08:21;5.17;;;4.67;;
11443;SDS011;5778;47.856;12.154;2023-02-28T01:10:49;5.00;;;3.67;;
11443;SDS011;5778;47.856;12.154;2023-02-28T01:13:16;4.50;;;4.10;;
11443;SDS011;5778;47.856;12.154;2023-02-28T01:15:48;4.17;;;3.77;;
11443;SDS011;5778;47.856;12.154;2023-02-28T01:18:18;4.20;;;3.80;;
11443;SDS011;5778;47.856;12.154;2023-02-28T01:20:46;5.13;;;4.30;;
11443;SDS011;5778;47.856;12.154;2023-02-28T01:23:13;4.73;;;4.33;;
11443;SDS011;5778;47.856;12.154;2023-02-28T01:25:40;4.93;;;4.23;;
11443;SDS011;5778;47.856;12.154;2023-02-28T01:28:11;4.33;;;3.93;;
11443;SDS011;5778;47.856;12.154;2023-02-28T01:30:38;4.43;;;4.03;;
11443;SDS011;5778;47.856;12.154;2023-02-28T01:33:11;6.20;;;4.20;;
11443;SDS011;5778;47.856;12.154;2023-02-28T01:35:38;5.40;;;3.83;;
11443;SDS011;5778;47.856;12.154;2023-02-28T01:38:07;5.77;;;4.20;;
11443;SDS011;5778;47.856;12.154;2023-02-28T01:40:35;5.97;;;4.70;;
11443;SDS011;5778;47.856;12.154;2023-02-28T01:43:02;5.47;;;4.50;;
11443;SDS011;5778;47.856;12.154;2023-02-28T01:45:30;7.97;;;4.60;;
11443;SDS011;5778;47.856;12.154;2023-02-28T01:47:59;4.83;;;4.33;;
11443;SDS011;5778;47.856;12.154;2023-02-28T01:50:35;6.83;;;4.67;;
11443;SDS011;5778;47.856;12.154;2023-02-28T01:53:06;5.00;;;4.33;;
11443;SDS011;5778;47.856;12.154;2023-02-28T01:55:36;7.60;;;4.93;;
11443;SDS011;5778;47.856;12.154;2023-02-28T01:58:04;6.10;;;4.90;;
11443;SDS011;5778;47.856;12.154;2023-02-28T02:00:35;5.03;;;4.17;;
11443;SDS011;5778;47.856;12.154;2023-02-28T02:03:07;5.70;;;4.37;;
11443;SDS011;5778;47.856;12.154;2023-02-28T02:05:39;4.90;;;4.50;;
11443;SDS011;5778;47.856;12.154;2023-02-28T02:08:08;4.83;;;4.27;;
11443;SDS011;5778;47.856;12.154;2023-02-28T02:10:39;6.20;;;4.97;;
11443;SDS011;5778;47.856;12.154;2023-02-28T02:13:21;6.00;;;4.97;;
11443;SDS011;5778;47.856;12.154;2023-02-28T02:16:12;5.60;;;4.63;;
11443;SDS011;5778;47.856;12.154;2023-02-28T02:18:52;6.17;;;4.70;;
11443;SDS011;5778;47.856;12.154;2023-02-28T02:21:39;5.17;;;4.67;;
11443;SDS011;5778;47.856;12.154;2023-02-28T02:27:25;4.47;;;4.07;;
11443;SDS011;5778;47.856;12.154;2023-02-28T02:30:18;5.30;;;4.47;;
11443;SDS011;5778;47.856;12.154;2023-02-28T02:33:06;4.83;;;4.33;;
11443;SDS011;5778;47.856;12.154;2023-02-28T02:35:53;4.50;;;4.10;;
11443;SDS011;5778;47.856;12.154;2023-02-28T02:38:31;5.07;;;4.23;;
11443;SDS011;5778;47.856;12.154;2023-02-28T02:41:04;5.67;;;3.93;;
11443;SDS011;5778;47.856;12.154;2023-02-28T02:43:40;4.80;;;4.40;;
11443;SDS011;5778;47.856;12.154;2023-02-28T02:46:14;5.13;;;4.73;;
11443;SDS011;5778;47.856;12.154;2023-02-28T02:48:47;5.77;;;5.03;;
11443;SDS011;5778;47.856;12.154;2023-02-28T02:51:17;5.37;;;4.47;;
11443;SDS011;5778;47.856;12.154;2023-02-28T02:53:49;5.80;;;4.53;;
11443;SDS011;5778;47.856;12.154;2023-02-28T02:56:24;5.00;;;4.40;;
11443;SDS011;5778;47.856;12.154;2023-02-28T02:58:57;4.73;;;4.23;;
11443;SDS011;5778;47.856;12.154;2023-02-28T03:01:30;5.37;;;4.30;;
11443;SDS011;5778;47.856;12.154;2023-02-28T03:03:59;7.40;;;4.83;;
11443;SDS011;5778;47.856;12.154;2023-02-28T03:06:30;6.00;;;5.37;;
11443;SDS011;5778;47.856;12.154;2023-02-28T03:08:58;6.50;;;5.30;;
11443;SDS011;5778;47.856;12.154;2023-02-28T03:11:26;6.37;;;4.83;;
11443;SDS011;5778;47.856;12.154;2023-02-28T03:13:58;6.47;;;5.40;;
11443;SDS011;5778;47.856;12.154;2023-02-28T03:16:55;7.33;;;4.97;;
11443;SDS011;5778;47.856;12.154;2023-02-28T03:19:38;6.27;;;5.27;;
11443;SDS011;5778;47.856;12.154;2023-02-28T03:22:18;8.43;;;5.90;;
11443;SDS011;5778;47.856;12.154;2023-02-28T03:24:57;6.47;;;5.43;;
11443;SDS011;5778;47.856;12.154;2023-02-28T03:27:34;7.40;;;5.03;;
11443;SDS011;5778;47.856;12.154;2023-02-28T03:30:09;5.90;;;5.30;;
11443;SDS011;5778;47.856;12.154;2023-02-28T03:32:42;5.40;;;4.90;;
11443;SDS011;5778;47.856;12.154;2023-02-28T03:35:21;9.97;;;5.50;;
11443;SDS011;5778;47.856;12.154;2023-02-28T03:37:54;6.70;;;5.60;;
11443;SDS011;5778;47.856;12.154;2023-02-28T03:40:28;6.23;;;5.30;;
11443;SDS011;5778;47.856;12.154;2023-02-28T03:43:01;8.23;;;6.10;;
11443;SDS011;5778;47.856;12.154;2023-02-28T03:45:36;8.47;;;6.13;;
11443;SDS011;5778;47.856;12.154;2023-02-28T03:48:06;7.47;;;5.47;;
11443;SDS011;5778;47.856;12.154;2023-02-28T03:50:38;8.43;;;5.90;;
11443;SDS011;5778;47.856;12.154;2023-02-28T03:53:10;6.70;;;5.87;;
11443;SDS011;5778;47.856;12.154;2023-02-28T03:55:42;9.60;;;5.90;;
11443;SDS011;5778;47.856;12.154;2023-02-28T03:58:14;6.80;;;5.37;;
11443;SDS011;5778;47.856;12.154;2023-02-28T04:00:47;6.50;;;5.70;;
11443;SDS011;5778;47.856;12.154;2023-02-28T04:03:19;6.47;;;5.73;;
11443;SDS011;5778;47.856;12.154;2023-02-28T04:05:47;6.50;;;5.43;;
11443;SDS011;5778;47.856;12.154;2023-02-28T04:08:19;7.53;;;6.37;;
11443;SDS011;5778;47.856;12.154;2023-02-28T04:10:48;6.83;;;5.83;;
11443;SDS011;5778;47.856;12.154;2023-02-28T04:13:20;8.13;;;5.60;;
11443;SDS011;5778;47.856;12.154;2023-02-28T04:15:47;7.77;;;6.10;;
11443;SDS011;5778;47.856;12.154;2023-02-28T04:18:14;8.33;;;6.37;;
11443;SDS011;5778;47.856;12.154;2023-02-28T04:20:41;7.63;;;5.93;;
11443;SDS011;5778;47.856;12.154;2023-02-28T04:23:08;7.13;;;6.43;;
11443;SDS011;5778;47.856;12.154;2023-02-28T04:25:36;7.77;;;6.10;;
11443;SDS011;5778;47.856;12.154;2023-02-28T04:28:05;8.03;;;6.50;;
11443;SDS011;5778;47.856;12.154;2023-02-28T04:30:33;7.40;;;6.30;;
11443;SDS011;5778;47.856;12.154;2023-02-28T04:32:59;9.90;;;6.70;;
11443;SDS011;5778;47.856;12.154;2023-02-28T04:35:27;7.50;;;6.70;;
11443;SDS011;5778;47.856;12.154;2023-02-28T04:37:53;8.70;;;7.80;;
11443;SDS011;5778;47.856;12.154;2023-02-28T04:40:20;7.50;;;6.70;;
11443;SDS011;5778;47.856;12.154;2023-02-28T04:42:49;9.40;;;6.50;;
11443;SDS011;5778;47.856;12.154;2023-02-28T04:45:16;9.67;;;6.47;;
11443;SDS011;5778;47.856;12.154;2023-02-28T04:47:44;8.93;;;6.53;;
11443;SDS011;5778;47.856;12.154;2023-02-28T04:50:12;7.57;;;6.63;;
11443;SDS011;5778;47.856;12.154;2023-02-28T04:52:39;7.00;;;6.10;;
11443;SDS011;5778;47.856;12.154;2023-02-28T04:55:06;6.77;;;6.07;;
11443;SDS011;5778;47.856;12.154;2023-02-28T04:57:34;6.77;;;6.00;;
11443;SDS011;5778;47.856;12.154;2023-02-28T05:00:04;8.13;;;6.57;;
11443;SDS011;5778;47.856;12.154;2023-02-28T05:02:36;7.13;;;5.80;;
11443;SDS011;5778;47.856;12.154;2023-02-28T05:05:04;7.50;;;6.47;;
11443;SDS011;5778;47.856;12.154;2023-02-28T05:07:36;8.03;;;6.47;;
11443;SDS011;5778;47.856;12.154;2023-02-28T05:10:04;9.37;;;7.00;;
11443;SDS011;5778;47.856;12.154;2023-02-28T05:12:35;8.63;;;6.30;;
11443;SDS011;5778;47.856;12.154;2023-02-28T05:15:04;10.43;;;6.10;;
11443;SDS011;5778;47.856;12.154;2023-02-28T05:17:31;12.83;;;7.00;;
11443;SDS011;5778;47.856;12.154;2023-02-28T05:19:58;10.23;;;7.50;;
11443;SDS011;5778;47.856;12.154;2023-02-28T05:22:27;14.80;;;8.07;;
11443;SDS011;5778;47.856;12.154;2023-02-28T05:24:55;10.43;;;7.43;;
11443;SDS011;5778;47.856;12.154;2023-02-28T05:27:22;8.50;;;7.30;;
11443;SDS011;5778;47.856;12.154;2023-02-28T05:29:50;15.00;;;7.70;;
11443;SDS011;5778;47.856;12.154;2023-02-28T05:32:18;10.10;;;6.97;;
11443;SDS011;5778;47.856;12.154;2023-02-28T05:34:45;10.90;;;6.50;;
11443;SDS011;5778;47.856;12.154;2023-02-28T05:37:13;10.40;;;7.27;;
11443;SDS011;5778;47.856;12.154;2023-02-28T05:39:41;11.63;;;7.47;;
11443;SDS011;5778;47.856;12.154;2023-02-28T05:42:08;11.13;;;7.87;;
11443;SDS011;5778;47.856;12.154;2023-02-28T05:47:43;13.90;;;9.63;;
11443;SDS011;5778;47.856;12.154;2023-02-28T05:50:10;13.07;;;9.27;;
11443;SDS011;5778;47.856;12.154;2023-02-28T05:52:41;14.83;;;9.73;;
11443;SDS011;5778;47.856;12.154;2023-02-28T05:55:08;12.23;;;8.77;;
11443;SDS011;5778;47.856;12.154;2023-02-28T05:57:35;13.63;;;10.63;;
11443;SDS011;5778;47.856;12.154;2023-02-28T06:00:03;10.33;;;8.70;;
11443;SDS011;5778;47.856;12.154;2023-02-28T06:05:40;9.50;;;7.87;;
11443;SDS011;5778;47.856;12.154;2023-02-28T06:08:09;10.67;;;8.47;;
11443;SDS011;5778;47.856;12.154;2023-02-28T06:10:37;11.20;;;8.37;;
11443;SDS011;5778;47.856;12.154;2023-02-28T06:13:07;9.43;;;8.43;;
11443;SDS011;5778;47.856;12.154;2023-02-28T06:15:34;11.40;;;8.37;;
11443;SDS011;5778;47.856;12.154;2023-02-28T06:18:02;12.33;;;10.00;;
11443;SDS011;5778;47.856;12.154;2023-02-28T06:20:31;11.20;;;8.83;;
11443;SDS011;5778;47.856;12.154;2023-02-28T06:23:00;15.50;;;9.37;;
11443;SDS011;5778;47.856;12.154;2023-02-28T06:25:28;12.27;;;9.23;;
11443;SDS011;5778;47.856;12.154;2023-02-28T06:27:55;12.27;;;8.80;;
11443;SDS011;5778;47.856;12.154;2023-02-28T06:30:22;10.50;;;8.67;;
11443;SDS011;5778;47.856;12.154;2023-02-28T06:32:52;11.50;;;8.60;;
11443;SDS011;5778;47.856;12.154;2023-02-28T06:35:22;11.43;;;9.10;;
11443;SDS011;5778;47.856;12.154;2023-02-28T06:37:53;10.90;;;9.27;;
11443;SDS011;5778;47.856;12.154;2023-02-28T06:40:21;10.53;;;8.67;;
11443;SDS011;5778;47.856;12.154;2023-02-28T06:42:48;10.23;;;8.57;;
11443;SDS011;5778;47.856;12.154;2023-02-28T06:45:16;13.63;;;9.40;;
11443;SDS011;5778;47.856;12.154;2023-02-28T06:47:44;16.47;;;10.20;;
11443;SDS011;5778;47.856;12.154;2023-02-28T06:50:17;10.60;;;8.27;;
11443;SDS011;5778;47.856;12.154;2023-02-28T06:52:53;11.37;;;9.03;;
11443;SDS011;5778;47.856;12.154;2023-02-28T06:55:20;11.60;;;8.80;;
11443;SDS011;5778;47.856;12.154;2023-02-28T06:57:48;10.73;;;8.53;;
11443;SDS011;5778;47.856;12.154;2023-02-28T07:00:16;10.87;;;8.60;;
11443;SDS011;5778;47.856;12.154;2023-02-28T07:02:48;11.27;;;8.23;;
11443;SDS011;5778;47.856;12.154;2023-02-28T07:05:20;10.37;;;8.87;;
11443;SDS011;5778;47.856;12.154;2023-02-28T07:07:50;13.03;;;8.60;;
11443;SDS011;5778;47.856;12.154;2023-02-28T07:10:19;11.67;;;8.93;;
11443;SDS011;5778;47.856;12.154;2023-02-28T07:12:47;12.00;;;8.20;;
11443;SDS011;5778;47.856;12.154;2023-02-28T07:15:16;11.43;;;8.50;;
11443;SDS011;5778;47.856;12.154;2023-02-28T07:17:43;9.53;;;8.53;;
11443;SDS011;5778;47.856;12.154;2023-02-28T07:20:11;14.60;;;11.47;;
11443;SDS011;5778;47.856;12.154;2023-02-28T07:22:52;11.93;;;10.40;;
11443;SDS011;5778;47.856;12.154;2023-02-28T07:25:24;12.90;;;9.70;;
11443;SDS011;5778;47.856;12.154;2023-02-28T07:27:52;10.70;;;9.23;;
11443;SDS011;5778;47.856;12.154;2023-02-28T07:30:20;10.27;;;8.83;;
11443;SDS011;5778;47.856;12.154;2023-02-28T07:35:56;12.47;;;10.70;;
11443;SDS011;5778;47.856;12.154;2023-02-28T07:38:38;12.40;;;9.13;;
11443;SDS011;5778;47.856;12.154;2023-02-28T07:41:07;12.03;;;9.23;;
11443;SDS011;5778;47.856;12.154;2023-02-28T07:43:39;13.50;;;9.33;;
11443;SDS011;5778;47.856;12.154;2023-02-28T07:46:07;12.27;;;9.73;;
11443;SDS011;5778;47.856;12.154;2023-02-28T07:48:36;14.30;;;9.77;;
11443;SDS011;5778;47.856;12.154;2023-02-28T07:51:03;10.80;;;8.80;;
11443;SDS011;5778;47.856;12.154;2023-02-28T07:53:31;13.80;;;9.67;;
11443;SDS011;5778;47.856;12.154;2023-02-28T07:55:58;10.20;;;8.07;;
11443;SDS011;5778;47.856;12.154;2023-02-28T07:58:28;10.77;;;9.00;;
11443;SDS011;5778;47.856;12.154;2023-02-28T08:00:57;9.23;;;8.07;;
11443;SDS011;5778;47.856;12.154;2023-02-28T08:03:32;10.10;;;7.90;;
11443;SDS011;5778;47.856;12.154;2023-02-28T08:05:59;12.23;;;8.43;;
11443;SDS011;5778;47.856;12.154;2023-02-28T08:08:27;10.27;;;8.53;;
11443;SDS011;5778;47.856;12.154;2023-02-28T08:10:57;13.10;;;9.17;;
11443;SDS011;5778;47.856;12.154;2023-02-28T08:13:43;13.73;;;11.00;;
11443;SDS011;5778;47.856;12.154;2023-02-28T08:16:10;13.27;;;10.03;;
11443;SDS011;5778;47.856;12.154;2023-02-28T08:18:40;12.47;;;10.00;;
11443;SDS011;5778;47.856;12.154;2023-02-28T08:21:07;11.63;;;9.20;;
11443;SDS011;5778;47.856;12.154;2023-02-28T08:23:38;10.27;;;8.70;;
11443;SDS011;5778;47.856;12.154;2023-02-28T08:26:05;13.13;;;9.90;;
11443;SDS011;5778;47.856;12.154;2023-02-28T08:28:32;14.13;;;10.30;;
11443;SDS011;5778;47.856;12.154;2023-02-28T08:31:01;12.70;;;9.23;;
11443;SDS011;5778;47.856;12.154;2023-02-28T08:33:41;11.53;;;9.23;;
11443;SDS011;5778;47.856;12.154;2023-02-28T08:36:09;12.83;;;9.33;;
11443;SDS011;5778;47.856;12.154;2023-02-28T08:38:37;11.63;;;10.03;;
11443;SDS011;5778;47.856;12.154;2023-02-28T08:41:05;11.57;;;9.40;;
11443;SDS011;5778;47.856;12.154;2023-02-28T08:43:39;11.13;;;8.80;;
11443;SDS011;5778;47.856;12.154;2023-02-28T08:46:10;11.37;;;9.40;;
11443;SDS011;5778;47.856;12.154;2023-02-28T08:48:39;12.93;;;9.73;;
11443;SDS011;5778;47.856;12.154;2023-02-28T08:51:07;12.90;;;10.80;;
11443;SDS011;5778;47.856;12.154;2023-02-28T08:56:28;13.40;;;10.97;;
11443;SDS011;5778;47.856;12.154;2023-02-28T08:58:56;14.87;;;10.90;;
11443;SDS011;5778;47.856;12.154;2023-02-28T09:01:26;15.53;;;11.53;;
11443;SDS011;5778;47.856;12.154;2023-02-28T09:03:56;14.50;;;11.37;;
11443;SDS011;5778;47.856;12.154;2023-02-28T09:06:25;14.60;;;11.33;;
11443;SDS011;5778;47.856;12.154;2023-02-28T09:08:55;14.33;;;11.67;;
11443;SDS011;5778;47.856;12.154;2023-02-28T09:11:26;14.47;;;11.37;;
11443;SDS011;5778;47.856;12.154;2023-02-28T09:16:44;13.87;;;11.27;;
11443;SDS011;5778;47.856;12.154;2023-02-28T09:19:11;14.10;;;11.97;;
11443;SDS011;5778;47.856;12.154;2023-02-28T09:21:38;16.50;;;12.80;;
11443;SDS011;5778;47.856;12.154;2023-02-28T09:24:13;15.97;;;12.33;;
11443;SDS011;5778;47.856;12.154;2023-02-28T09:26:40;16.50;;;12.63;;
11443;SDS011;5778;47.856;12.154;2023-02-28T09:29:07;14.33;;;12.63;;
11443;SDS011;5778;47.856;12.154;2023-02-28T09:31:36;15.90;;;13.13;;
11443;SDS011;5778;47.856;12.154;2023-02-28T09:37:10;13.90;;;12.27;;
11443;SDS011;5778;47.856;12.154;2023-02-28T09:39:37;15.43;;;12.73;;
11443;SDS011;5778;47.856;12.154;2023-02-28T09:42:05;14.50;;;12.67;;
11443;SDS011;5778;47.856;12.154;2023-02-28T09:44:51;16.20;;;13.20;;
11443;SDS011;5778;47.856;12.154;2023-02-28T09:47:19;16.20;;;12.60;;
11443;SDS011;5778;47.856;12.154;2023-02-28T09:49:52;16.40;;;13.37;;
11443;SDS011;5778;47.856;12.154;2023-02-28T09:52:24;18.27;;;14.53;;
11443;SDS011;5778;47.856;12.154;2023-02-28T09:54:55;17.83;;;13.53;;
11443;SDS011;5778;47.856;12.154;2023-02-28T09:57:29;16.13;;;13.60;;
11443;SDS011;5778;47.856;12.154;2023-02-28T10:00:05;16.93;;;14.57;;
11443;SDS011;5778;47.856;12.154;2023-02-28T10:02:53;15.20;;;13.43;;
11443;SDS011;5778;47.856;12.154;2023-02-28T10:05:29;17.60;;;14.00;;
11443;SDS011;5778;47.856;12.154;2023-02-28T10:08:03;16.70;;;14.23;;
11443;SDS011;5778;47.856;12.154;2023-02-28T10:10:37;18.57;;;14.03;;
11443;SDS011;5778;47.856;12.154;2023-02-28T10:13:13;16.70;;;13.70;;
11443;SDS011;5778;47.856;12.154;2023-02-28T10:15:46;20.43;;;15.20;;
11443;SDS011;5778;47.856;12.154;2023-02-28T10:18:19;16.10;;;13.57;;
11443;SDS011;5778;47.856;12.154;2023-02-28T10:20:50;17.73;;;14.63;;
11443;SDS011;5778;47.856;12.154;2023-02-28T10:23:25;17.27;;;14.60;;
11443;SDS011;5778;47.856;12.154;2023-02-28T10:25:57;17.90;;;13.90;;
11443;SDS011;5778;47.856;12.154;2023-02-28T10:28:27;16.83;;;14.00;;
11443;SDS011;5778;47.856;12.154;2023-02-28T10:30:57;16.90;;;14.10;;
11443;SDS011;5778;47.856;12.154;2023-02-28T10:33:28;18.40;;;13.87;;
11443;SDS011;5778;47.856;12.154;2023-02-28T10:35:57;17.53;;;13.77;;
11443;SDS011;5778;47.856;12.154;2023-02-28T10:38:28;15.70;;;12.90;;
11443;SDS011;5778;47.856;12.154;2023-02-28T10:41:09;17.97;;;13.50;;
11443;SDS011;5778;47.856;12.154;2023-02-28T10:43:39;16.17;;;13.87;;
11443;SDS011;5778;47.856;12.154;2023-02-28T10:46:12;16.13;;;13.73;;
11443;SDS011;5778;47.856;12.154;2023-02-28T10:48:57;15.63;;;13.20;;
11443;SDS011;5778;47.856;12.154;2023-02-28T10:51:34;17.20;;;14.47;;
11443;SDS011;5778;47.856;12.154;2023-02-28T10:54:15;15.77;;;12.87;;
11443;SDS011;5778;47.856;12.154;2023-02-28T10:56:44;15.73;;;12.90;;
11443;SDS011;5778;47.856;12.154;2023-02-28T10:59:24;16.83;;;14.23;;
11443;SDS011;5778;47.856;12.154;2023-02-28T11:01:55;17.10;;;13.50;;
11443;SDS011;5778;47.856;12.154;2023-02-28T11:04:37;15.67;;;13.07;;
11443;SDS011;5778;47.856;12.154;2023-02-28T11:07:06;16.47;;;12.67;;
11443;SDS011;5778;47.856;12.154;2023-02-28T11:09:46;15.67;;;12.70;;
11443;SDS011;5778;47.856;12.154;2023-02-28T11:12:20;15.73;;;12.30;;
11443;SDS011;5778;47.856;12.154;2023-02-28T11:14:49;15.53;;;12.37;;
11443;SDS011;5778;47.856;12.154;2023-02-28T11:17:19;18.30;;;13.00;;
11443;SDS011;5778;47.856;12.154;2023-02-28T11:19:50;16.50;;;13.00;;
11443;SDS011;5778;47.856;12.154;2023-02-28T11:22:20;15.10;;;12.57;;
11443;SDS011;5778;47.856;12.154;2023-02-28T11:24:51;14.50;;;12.60;;
11443;SDS011;5778;47.856;12.154;2023-02-28T11:27:25;15.53;;;12.57;;
11443;SDS011;5778;47.856;12.154;2023-02-28T11:30:11;16.13;;;12.47;;
11443;SDS011;5778;47.856;12.154;2023-02-28T11:35:55;14.73;;;12.60;;
11443;SDS011;5778;47.856;12.154;2023-02-28T11:38:25;15.03;;;12.73;;
11443;SDS011;5778;47.856;12.154;2023-02-28T11:40:59;14.63;;;12.60;;
11443;SDS011;5778;47.856;12.154;2023-02-28T11:43:38;14.07;;;11.73;;
11443;SDS011;5778;47.856;12.154;2023-02-28T11:46:20;14.03;;;12.07;;
11443;SDS011;5778;47.856;12.154;2023-02-28T11:48:58;15.10;;;12.63;;
11443;SDS011;5778;47.856;12.154;2023-02-28T11:51:52;14.00;;;11.97;;
11443;SDS011;5778;47.856;12.154;2023-02-28T11:54:48;15.53;;;12.70;;
11443;SDS011;5778;47.856;12.154;2023-02-28T11:57:44;15.70;;;12.47;;
11443;SDS011;5778;47.856;12.154;2023-02-28T12:00:25;15.30;;;12.67;;
11443;SDS011;5778;47.856;12.154;2023-02-28T12:03:13;15.90;;;12.30;;
11443;SDS011;5778;47.856;12.154;2023-02-28T12:05:50;14.17;;;12.17;;
11443;SDS011;5778;47.856;12.154;2023-02-28T12:08:40;14.97;;;12.17;;
11443;SDS011;5778;47.856;12.154;2023-02-28T12:11:15;12.87;;;11.50;;
11443;SDS011;5778;47.856;12.154;2023-02-28T12:13:59;13.77;;;11.30;;
11443;SDS011;5778;47.856;12.154;2023-02-28T12:16:50;13.47;;;11.30;;
11443;SDS011;5778;47.856;12.154;2023-02-28T12:19:28;12.20;;;10.63;;
11443;SDS011;5778;47.856;12.154;2023-02-28T12:22:17;13.33;;;11.10;;
11443;SDS011;5778;47.856;12.154;2023-02-28T12:25:00;12.40;;;11.10;;
11443;SDS011;5778;47.856;12.154;2023-02-28T12:27:47;12.20;;;10.90;;
11443;SDS011;5778;47.856;12.154;2023-02-28T12:30:18;12.33;;;11.03;;
11443;SDS011;5778;47.856;12.154;2023-02-28T12:36:03;15.87;;;12.77;;
11443;SDS011;5778;47.856;12.154;2023-02-28T12:38:38;13.30;;;11.97;;
11443;SDS011;5778;47.856;12.154;2023-02-28T12:41:09;12.93;;;11.37;;
11443;SDS011;5778;47.856;12.154;2023-02-28T12:43:44;13.30;;;11.93;;
11443;SDS011;5778;47.856;12.154;2023-02-28T12:46:17;12.93;;;11.23;;
11443;SDS011;5778;47.856;12.154;2023-02-28T12:48:51;13.23;;;11.73;;
11443;SDS011;5778;47.856;12.154;2023-02-28T12:51:22;13.97;;;11.40;;
11443;SDS011;5778;47.856;12.154;2023-02-28T12:54:12;15.57;;;12.23;;
11443;SDS011;5778;47.856;12.154;2023-02-28T12:56:47;13.40;;;12.00;;
11443;SDS011;5778;47.856;12.154;2023-02-28T12:59:22;17.30;;;12.20;;
11443;SDS011;5778;47.856;12.154;2023-02-28T13:02:09;13.80;;;12.30;;
11443;SDS011;5778;47.856;12.154;2023-02-28T13:05:13;14.30;;;12.80;;
11443;SDS011;5778;47.856;12.154;2023-02-28T13:08:21;13.57;;;12.13;;
11443;SDS011;5778;47.856;12.154;2023-02-28T13:10:59;13.63;;;12.23;;
11443;SDS011;5778;47.856;12.154;2023-02-28T13:13:27;13.90;;;12.43;;
11443;SDS011;5778;47.856;12.154;2023-02-28T13:15:58;15.77;;;13.00;;
11443;SDS011;5778;47.856;12.154;2023-02-28T13:18:33;13.47;;;12.10;;
11443;SDS011;5778;47.856;12.154;2023-02-28T13:21:03;14.77;;;12.37;;
11443;SDS011;5778;47.856;12.154;2023-02-28T13:23:39;14.50;;;13.00;;
11443;SDS011;5778;47.856;12.154;2023-02-28T13:26:32;13.70;;;12.30;;
11443;SDS011;5778;47.856;12.154;2023-02-28T13:29:37;14.50;;;12.10;;
11443;SDS011;5778;47.856;12.154;2023-02-28T13:35:14;14.40;;;12.33;;
11443;SDS011;5778;47.856;12.154;2023-02-28T13:38:11;15.10;;;13.40;;
11443;SDS011;5778;47.856;12.154;2023-02-28T13:40:48;13.73;;;12.43;;
11443;SDS011;5778;47.856;12.154;2023-02-28T13:43:16;14.00;;;12.60;;
11443;SDS011;5778;47.856;12.154;2023-02-28T13:46:04;15.27;;;12.53;;
11443;SDS011;5778;47.856;12.154;2023-02-28T13:48:35;13.63;;;12.23;;
11443;SDS011;5778;47.856;12.154;2023-02-28T13:54:12;14.23;;;12.73;;
11443;SDS011;5778;47.856;12.154;2023-02-28T13:56:53;13.40;;;11.67;;
11443;SDS011;5778;47.856;12.154;2023-02-28T13:59:32;14.00;;;12.57;;
11443;SDS011;5778;47.856;12.154;2023-02-28T14:02:25;14.13;;;12.40;;
11443;SDS011;5778;47.856;12.154;2023-02-28T14:05:10;14.43;;;12.37;;
11443;SDS011;5778;47.856;12.154;2023-02-28T14:07:43;14.50;;;12.50;;
11443;SDS011;5778;47.856;12.154;2023-02-28T14:10:24;14.00;;;12.53;;
11443;SDS011;5778;47.856;12.154;2023-02-28T14:12:55;14.37;;;12.27;;
11443;SDS011;5778;47.856;12.154;2023-02-28T14:15:30;13.83;;;12.37;;
11443;SDS011;5778;47.856;12.154;2023-02-28T14:18:06;14.53;;;13.00;;
11443;SDS011;5778;47.856;12.154;2023-02-28T14:20:43;13.90;;;12.13;;
11443;SDS011;5778;47.856;12.154;2023-02-28T14:23:30;13.90;;;12.50;;
11443;SDS011;5778;47.856;12.154;2023-02-28T14:26:13;13.53;;;12.13;;
11443;SDS011;5778;47.856;12.154;2023-02-28T14:28:56;13.57;;;11.93;;
11443;SDS011;5778;47.856;12.154;2023-02-28T14:31:41;12.60;;;11.40;;
11443;SDS011;5778;47.856;12.154;2023-02-28T14:37:13;13.90;;;12.50;;
11443;SDS011;5778;47.856;12.154;2023-02-28T14:39:46;12.80;;;11.50;;
11443;SDS011;5778;47.856;12.154;2023-02-28T14:42:25;14.20;;;11.67;;
11443;SDS011;5778;47.856;12.154;2023-02-28T14:44:54;13.27;;;11.50;;
11443;SDS011;5778;47.856;12.154;2023-02-28T14:47:23;13.10;;;11.67;;
11443;SDS011;5778;47.856;12.154;2023-02-28T14:49:53;13.23;;;10.97;;
11443;SDS011;5778;47.856;12.154;2023-02-28T14:52:21;13.70;;;12.30;;
11443;SDS011;5778;47.856;12.154;2023-02-28T14:54:54;14.80;;;12.43;;
11443;SDS011;5778;47.856;12.154;2023-02-28T14:57:23;12.90;;;11.60;;
11443;SDS011;5778;47.856;12.154;2023-02-28T14:59:59;13.47;;;11.60;;
11443;SDS011;5778;47.856;12.154;2023-02-28T15:02:29;13.70;;;11.63;;
11443;SDS011;5778;47.856;12.154;2023-02-28T15:04:58;13.57;;;12.17;;
11443;SDS011;5778;47.856;12.154;2023-02-28T15:07:26;12.93;;;11.53;;
11443;SDS011;5778;47.856;12.154;2023-02-28T15:12:56;13.03;;;11.70;;
11443;SDS011;5778;47.856;12.154;2023-02-28T15:15:26;13.10;;;11.70;;
11443;SDS011;5778;47.856;12.154;2023-02-28T15:18:02;13.30;;;11.60;;
11443;SDS011;5778;47.856;12.154;2023-02-28T15:20:32;14.97;;;11.77;;
11443;SDS011;5778;47.856;12.154;2023-02-28T15:23:03;16.77;;;12.53;;
11443;SDS011;5778;47.856;12.154;2023-02-28T15:25:32;13.63;;;12.23;;
11443;SDS011;5778;47.856;12.154;2023-02-28T15:28:01;14.30;;;11.90;;
11443;SDS011;5778;47.856;12.154;2023-02-28T15:30:29;13.00;;;11.57;;
11443;SDS011;5778;47.856;12.154;2023-02-28T15:35:50;12.50;;;11.30;;
11443;SDS011;5778;47.856;12.154;2023-02-28T15:38:21;13.20;;;11.83;;
11443;SDS011;5778;47.856;12.154;2023-02-28T15:40:52;13.70;;;12.23;;
11443;SDS011;5778;47.856;12.154;2023-02-28T15:43:24;13.73;;;12.07;;
11443;SDS011;5778;47.856;12.154;2023-02-28T15:45:55;14.10;;;11.73;;
11443;SDS011;5778;47.856;12.154;2023-02-28T15:48:24;12.67;;;11.37;;